createdAt,value
2018-12-31T00:00:23.282Z,101584.02
2018-12-31T00:02:55.945Z,101579.72
2018-12-31T00:05:26.706Z,101580.50
2018-12-31T00:07:57.700Z,101581.27
2018-12-31T00:10:28.492Z,101579.45
2018-12-31T00:12:59.484Z,101576.28
2018-12-31T00:15:30.315Z,101574.32
2018-12-31T00:18:01.328Z,101580.16
2018-12-31T00:20:51.571Z,101587.20
2018-12-31T00:26:26.931Z,101583.88
2018-12-31T00:28:57.709Z,101574.11
2018-12-31T00:31:28.468Z,101574.29
2018-12-31T00:33:59.350Z,101582.73
2018-12-31T00:36:49.607Z,101586.17
2018-12-31T00:39:20.652Z,101589.60
2018-12-31T00:42:29.705Z,101587.02
2018-12-31T00:45:00.961Z,101584.53
2018-12-31T00:47:33.035Z,101584.17
2018-12-31T00:50:04.838Z,101584.84
2018-12-31T00:52:36.110Z,101589.19
2018-12-31T00:55:07.055Z,101585.81
2018-12-31T00:57:38.053Z,101587.52
2018-12-31T01:00:09.115Z,101587.58
2018-12-31T01:02:39.956Z,101593.97
2018-12-31T01:05:10.704Z,101594.35
2018-12-31T01:07:41.711Z,101585.64
2018-12-31T01:10:12.846Z,101582.56
2018-12-31T01:12:44.048Z,101583.70
2018-12-31T01:15:14.819Z,101575.64
2018-12-31T01:17:45.843Z,101574.02
2018-12-31T01:20:16.621Z,101572.38
2018-12-31T01:22:47.885Z,101569.73
2018-12-31T01:25:18.899Z,101572.59
2018-12-31T01:27:49.700Z,101564.67
2018-12-31T01:30:20.726Z,101570.09
2018-12-31T01:32:52.803Z,101567.16
2018-12-31T01:35:23.580Z,101568.95
2018-12-31T01:37:54.675Z,101569.92
2018-12-31T01:40:26.746Z,101573.35
2018-12-31T01:42:57.785Z,101567.84
2018-12-31T01:45:28.807Z,101569.92
2018-12-31T01:47:59.822Z,101571.19
2018-12-31T01:50:30.617Z,101567.42
2018-12-31T01:53:01.647Z,101571.30
2018-12-31T01:55:32.664Z,101575.75
2018-12-31T01:58:03.454Z,101563.66
2018-12-31T02:00:34.560Z,101577.05
2018-12-31T02:03:05.758Z,101587.14
2018-12-31T02:05:36.740Z,101583.67
2018-12-31T02:08:07.768Z,101580.77
2018-12-31T02:10:38.778Z,101564.67
2018-12-31T02:13:09.815Z,101573.52
2018-12-31T02:15:40.890Z,101566.58
2018-12-31T02:18:12.091Z,101567.69
2018-12-31T02:20:42.955Z,101567.95
2018-12-31T02:23:14.135Z,101574.20
2018-12-31T02:25:44.910Z,101565.81
2018-12-31T02:28:15.925Z,101567.28
2018-12-31T02:30:47.445Z,101571.73
2018-12-31T02:33:18.543Z,101575.84
2018-12-31T02:35:49.627Z,101574.88
2018-12-31T02:38:20.424Z,101581.36
2018-12-31T02:40:51.427Z,101580.98
2018-12-31T02:43:22.557Z,101572.85
2018-12-31T02:45:53.416Z,101573.44
2018-12-31T02:48:24.473Z,101571.21
2018-12-31T02:50:55.319Z,101578.52
2018-12-31T02:53:26.116Z,101568.72
2018-12-31T02:55:57.145Z,101560.47
2018-12-31T02:58:28.018Z,101560.89
2018-12-31T03:00:59.039Z,101558.72
2018-12-31T03:03:29.890Z,101561.41
2018-12-31T03:06:01.946Z,101558.30
2018-12-31T03:08:32.874Z,101557.98
2018-12-31T03:11:04.358Z,101560.56
2018-12-31T03:13:35.430Z,101563.00
2018-12-31T03:16:06.303Z,101563.88
2018-12-31T03:18:37.600Z,101559.59
2018-12-31T03:21:08.877Z,101555.16
2018-12-31T03:23:39.893Z,101555.25
2018-12-31T03:26:10.915Z,101560.33
2018-12-31T03:28:41.981Z,101555.08
2018-12-31T03:31:12.845Z,101546.51
2018-12-31T03:33:43.864Z,101541.58
2018-12-31T03:36:14.982Z,101542.84
2018-12-31T03:38:45.763Z,101545.45
2018-12-31T03:41:17.071Z,101543.84
2018-12-31T03:43:48.100Z,101546.27
2018-12-31T03:46:18.965Z,101538.02
2018-12-31T03:48:50.219Z,101540.09
2018-12-31T03:51:21.076Z,101534.23
2018-12-31T03:53:51.871Z,101533.27
2018-12-31T03:56:22.651Z,101531.50
2018-12-31T03:58:53.437Z,101534.05
2018-12-31T04:01:24.303Z,101532.00
2018-12-31T04:03:55.081Z,101531.66
2018-12-31T04:06:26.125Z,101528.98
2018-12-31T04:08:56.901Z,101522.21
2018-12-31T04:11:27.936Z,101514.56
2018-12-31T04:13:58.983Z,101515.98
2018-12-31T04:16:29.997Z,101520.61
2018-12-31T04:19:00.829Z,101528.80
2018-12-31T04:21:31.868Z,101524.08
2018-12-31T04:24:02.640Z,101525.78
2018-12-31T04:26:33.662Z,101518.47
2018-12-31T04:29:04.946Z,101522.34
2018-12-31T04:31:36.042Z,101519.34
2018-12-31T04:34:07.037Z,101528.89
2018-12-31T04:36:37.835Z,101529.68
2018-12-31T04:39:08.710Z,101533.30
2018-12-31T04:41:39.987Z,101531.06
2018-12-31T04:44:11.058Z,101535.92
2018-12-31T04:46:42.229Z,101537.33
2018-12-31T04:49:13.036Z,101531.35
2018-12-31T04:51:43.835Z,101533.97
2018-12-31T04:54:14.923Z,101530.09
2018-12-31T04:56:45.950Z,101531.79
2018-12-31T04:59:17.114Z,101538.56
2018-12-31T05:01:48.141Z,101532.98
2018-12-31T05:04:19.155Z,101537.33
2018-12-31T05:06:49.960Z,101534.28
2018-12-31T05:09:20.735Z,101530.00
2018-12-31T05:11:51.760Z,101526.94
2018-12-31T05:14:22.774Z,101525.84
2018-12-31T05:16:53.801Z,101530.12
2018-12-31T05:19:24.663Z,101532.61
2018-12-31T05:21:55.532Z,101532.61
2018-12-31T05:24:26.636Z,101540.86
2018-12-31T05:26:57.662Z,101534.78
2018-12-31T05:29:28.926Z,101544.92
2018-12-31T05:31:59.947Z,101541.43
2018-12-31T05:34:30.954Z,101540.45
2018-12-31T05:37:01.751Z,101544.86
2018-12-31T05:39:32.805Z,101547.03
2018-12-31T05:42:03.599Z,101547.60
2018-12-31T05:44:34.848Z,101556.55
2018-12-31T05:47:05.741Z,101561.08
2018-12-31T05:49:36.755Z,101560.55
2018-12-31T05:52:07.633Z,101558.44
2018-12-31T05:54:38.651Z,101558.59
2018-12-31T05:57:09.459Z,101558.13
2018-12-31T05:59:40.465Z,101561.88
2018-12-31T06:02:11.258Z,101560.05
2018-12-31T06:04:42.288Z,101556.11
2018-12-31T06:07:13.086Z,101558.28
2018-12-31T06:09:43.961Z,101561.53
2018-12-31T06:12:15.283Z,101567.38
2018-12-31T06:17:50.296Z,101572.48
2018-12-31T06:20:21.116Z,101578.06
2018-12-31T06:23:12.748Z,101583.02
2018-12-31T06:26:03.034Z,101582.09
2018-12-31T06:28:34.123Z,101587.11
2018-12-31T06:31:24.198Z,101583.87
2018-12-31T06:33:54.983Z,101585.84
2018-12-31T06:36:25.857Z,101587.02
2018-12-31T06:38:56.948Z,101586.35
2018-12-31T06:41:28.052Z,101590.61
2018-12-31T06:43:59.127Z,101591.61
2018-12-31T06:46:30.161Z,101595.59
2018-12-31T06:49:00.935Z,101596.16
2018-12-31T06:51:31.961Z,101594.89
2018-12-31T06:54:02.747Z,101603.05
2018-12-31T06:56:34.054Z,101598.55
2018-12-31T06:59:05.060Z,101591.77
2018-12-31T07:01:36.186Z,101596.15
2018-12-31T07:04:07.203Z,101602.58
2018-12-31T07:06:38.049Z,101607.59
2018-12-31T07:09:08.894Z,101607.15
2018-12-31T07:11:40.166Z,101602.39
2018-12-31T07:14:11.168Z,101600.75
2018-12-31T07:16:41.967Z,101605.00
2018-12-31T07:19:12.992Z,101610.30
2018-12-31T07:21:44.020Z,101616.44
2018-12-31T07:24:15.023Z,101616.44
2018-12-31T07:26:46.042Z,101619.75
2018-12-31T07:29:17.071Z,101635.34
2018-12-31T07:31:48.003Z,101635.25
2018-12-31T07:34:19.199Z,101636.64
2018-12-31T07:36:50.273Z,101625.89
2018-12-31T07:39:21.342Z,101632.00
2018-12-31T07:41:52.219Z,101632.33
2018-12-31T07:44:23.287Z,101632.77
2018-12-31T07:46:54.309Z,101633.78
2018-12-31T07:49:25.318Z,101634.38
2018-12-31T07:51:56.131Z,101639.45
2018-12-31T07:54:27.241Z,101652.17
2018-12-31T07:56:58.537Z,101653.03
2018-12-31T07:59:29.310Z,101658.10
2018-12-31T08:02:00.335Z,101656.11
2018-12-31T08:04:31.355Z,101657.02
2018-12-31T08:07:02.388Z,101656.23
2018-12-31T08:09:33.399Z,101659.23
2018-12-31T08:12:04.436Z,101659.78
2018-12-31T08:14:35.215Z,101658.47
2018-12-31T08:17:06.010Z,101655.53
2018-12-31T08:19:37.024Z,101664.16
2018-12-31T08:22:08.067Z,101660.61
2018-12-31T08:24:38.852Z,101665.87
2018-12-31T08:27:10.227Z,101676.14
2018-12-31T08:29:41.016Z,101675.25
2018-12-31T08:32:12.357Z,101671.32
2018-12-31T08:34:43.184Z,101680.42
2018-12-31T08:37:14.479Z,101678.78
2018-12-31T08:39:45.486Z,101683.95
2018-12-31T08:42:16.704Z,101682.73
2018-12-31T08:44:47.776Z,101683.09
2018-12-31T08:47:18.614Z,101678.31
2018-12-31T08:49:49.474Z,101673.02
2018-12-31T08:52:20.348Z,101679.80
2018-12-31T08:54:51.135Z,101676.02
2018-12-31T08:57:22.183Z,101683.09
2018-12-31T08:59:53.928Z,101684.71
2018-12-31T09:02:24.731Z,101681.72
2018-12-31T09:04:55.514Z,101682.50
2018-12-31T09:07:27.871Z,101682.03
2018-12-31T09:09:58.898Z,101681.19
2018-12-31T09:12:29.691Z,101681.80
2018-12-31T09:15:00.556Z,101677.16
2018-12-31T09:17:31.610Z,101679.30
2018-12-31T09:20:02.392Z,101681.86
2018-12-31T09:22:33.487Z,101677.27
2018-12-31T09:25:04.477Z,101676.16
2018-12-31T09:27:35.271Z,101679.59
2018-12-31T09:30:06.516Z,101679.85
2018-12-31T09:32:37.391Z,101682.78
2018-12-31T09:35:08.247Z,101679.85
2018-12-31T09:37:39.549Z,101688.39
2018-12-31T09:40:10.349Z,101680.70
2018-12-31T09:42:41.356Z,101676.51
2018-12-31T09:45:12.375Z,101666.21
2018-12-31T09:47:43.388Z,101674.47
2018-12-31T09:50:14.488Z,101680.84
2018-12-31T09:52:45.533Z,101674.47
2018-12-31T09:55:16.315Z,101683.67
2018-12-31T09:57:47.359Z,101682.66
2018-12-31T10:00:18.403Z,101678.95
2018-12-31T10:02:49.183Z,101682.60
2018-12-31T10:05:19.976Z,101677.52
2018-12-31T10:07:51.004Z,101673.21
2018-12-31T10:10:22.356Z,101668.20
2018-12-31T10:12:53.406Z,101669.39
2018-12-31T10:15:24.678Z,101672.90
2018-12-31T10:17:55.754Z,101673.78
2018-12-31T10:20:26.772Z,101668.61
2018-12-31T10:22:57.786Z,101679.58
2018-12-31T10:25:28.582Z,101672.48
2018-12-31T10:27:59.859Z,101680.62
2018-12-31T10:30:31.366Z,101670.72
2018-12-31T10:33:02.635Z,101671.73
2018-12-31T10:35:33.726Z,101677.19
2018-12-31T10:38:04.515Z,101668.64
2018-12-31T10:40:35.308Z,101672.61
2018-12-31T10:43:06.598Z,101666.80
2018-12-31T10:45:37.638Z,101671.09
2018-12-31T10:48:08.491Z,101666.46
2018-12-31T10:50:39.287Z,101663.38
2018-12-31T10:53:10.317Z,101664.53
2018-12-31T10:55:41.125Z,101654.53
2018-12-31T10:58:12.136Z,101653.66
2018-12-31T11:00:42.925Z,101648.69
2018-12-31T11:03:14.197Z,101646.38
2018-12-31T11:05:45.637Z,101639.44
2018-12-31T11:08:16.741Z,101639.68
2018-12-31T11:10:47.767Z,101640.88
2018-12-31T11:13:18.562Z,101637.98
2018-12-31T11:15:49.586Z,101638.70
2018-12-31T11:18:20.595Z,101635.50
2018-12-31T11:20:51.436Z,101636.34
2018-12-31T11:23:22.216Z,101632.67
2018-12-31T11:25:53.310Z,101632.22
2018-12-31T11:28:24.464Z,101636.86
2018-12-31T11:30:55.737Z,101631.38
2018-12-31T11:33:27.795Z,101624.23
2018-12-31T11:35:58.822Z,101622.73
2018-12-31T11:38:29.843Z,101624.91
2018-12-31T11:41:00.638Z,101619.33
2018-12-31T11:43:31.638Z,101612.76
2018-12-31T11:46:02.440Z,101610.55
2018-12-31T11:48:33.733Z,101616.84
2018-12-31T11:51:04.759Z,101610.38
2018-12-31T11:53:35.851Z,101609.25
2018-12-31T11:56:06.651Z,101603.13
2018-12-31T11:58:37.439Z,101596.14
2018-12-31T12:01:08.315Z,101594.95
2018-12-31T12:03:39.395Z,101590.19
2018-12-31T12:09:25.712Z,101588.13
2018-12-31T12:11:56.998Z,101578.55
2018-12-31T12:14:28.512Z,101580.25
2018-12-31T12:16:59.551Z,101586.41
2018-12-31T12:19:30.334Z,101579.66
2018-12-31T12:22:01.127Z,101572.37
2018-12-31T12:24:32.130Z,101571.45
2018-12-31T12:27:04.267Z,101575.75
2018-12-31T12:29:35.552Z,101569.77
2018-12-31T12:32:06.954Z,101565.50
2018-12-31T12:34:37.730Z,101577.91
2018-12-31T12:37:08.772Z,101573.03
2018-12-31T12:39:40.097Z,101573.33
2018-12-31T12:42:11.525Z,101571.03
2018-12-31T12:44:42.538Z,101566.78
2018-12-31T12:47:13.599Z,101564.83
2018-12-31T12:49:45.107Z,101564.23
2018-12-31T12:52:16.563Z,101568.81
2018-12-31T12:54:47.631Z,101565.45
2018-12-31T12:57:19.151Z,101566.97
2018-12-31T13:00:27.159Z,101570.80
2018-12-31T13:03:17.356Z,101574.84
2018-12-31T13:05:48.625Z,101579.39
2018-12-31T13:08:19.419Z,101576.80
2018-12-31T13:11:02.505Z,101574.73
2018-12-31T13:13:34.359Z,101578.02
2018-12-31T13:16:07.147Z,101576.23
2018-12-31T13:18:39.923Z,101570.00
2018-12-31T13:24:58.697Z,101569.52
2018-12-31T13:27:50.497Z,101563.83
2018-12-31T13:30:22.087Z,101577.36
2018-12-31T13:32:55.122Z,101579.25
2018-12-31T13:35:26.131Z,101572.11
2018-12-31T13:37:57.201Z,101577.06
2018-12-31T13:40:28.418Z,101581.24
2018-12-31T13:42:59.551Z,101584.72
2018-12-31T13:48:52.551Z,101580.20
2018-12-31T13:51:37.650Z,101575.59
2018-12-31T13:54:09.509Z,101576.63
2018-12-31T13:57:01.207Z,101569.74
2018-12-31T14:00:13.080Z,101572.66
2018-12-31T14:02:44.716Z,101569.31
2018-12-31T14:05:16.584Z,101577.17
2018-12-31T14:07:48.581Z,101576.84
2018-12-31T14:10:20.054Z,101586.75
2018-12-31T14:12:52.644Z,101584.39
2018-12-31T14:15:24.580Z,101590.08
2018-12-31T14:17:55.693Z,101589.90
2018-12-31T14:20:27.073Z,101591.86
2018-12-31T14:22:57.881Z,101594.62
2018-12-31T14:25:29.178Z,101598.44
2018-12-31T14:28:00.049Z,101594.08
2018-12-31T14:30:31.205Z,101593.23
2018-12-31T14:33:02.003Z,101594.74
2018-12-31T14:35:32.773Z,101590.56
2018-12-31T14:38:04.733Z,101594.19
2018-12-31T14:40:35.753Z,101594.74
2018-12-31T14:43:06.763Z,101602.63
2018-12-31T14:45:37.765Z,101600.48
2018-12-31T14:48:08.855Z,101600.99
2018-12-31T14:50:39.635Z,101606.02
2018-12-31T14:53:10.679Z,101612.09
2018-12-31T14:55:41.977Z,101606.09
2018-12-31T14:58:13.076Z,101605.21
2018-12-31T15:00:43.823Z,101605.32
2018-12-31T15:03:14.663Z,101603.77
2018-12-31T15:05:45.679Z,101616.05
2018-12-31T15:08:16.700Z,101616.42
2018-12-31T15:10:47.499Z,101614.34
2018-12-31T15:13:18.297Z,101614.64
2018-12-31T15:15:49.146Z,101618.97
2018-12-31T15:18:20.627Z,101621.38
2018-12-31T15:20:51.651Z,101618.67
2018-12-31T15:23:22.670Z,101618.45
2018-12-31T15:25:53.816Z,101613.83
2018-12-31T15:28:24.988Z,101612.58
2018-12-31T15:30:56.203Z,101615.27
2018-12-31T15:33:28.218Z,101612.09
2018-12-31T15:35:59.353Z,101611.61
2018-12-31T15:38:30.311Z,101610.20
2018-12-31T15:41:01.318Z,101602.22
2018-12-31T15:43:32.159Z,101613.87
2018-12-31T15:46:03.170Z,101611.69
2018-12-31T15:48:33.962Z,101611.39
2018-12-31T15:51:05.145Z,101619.67
2018-12-31T15:53:36.721Z,101620.75
2018-12-31T15:56:08.040Z,101627.18
2018-12-31T15:58:39.054Z,101625.84
2018-12-31T16:01:10.315Z,101622.77
2018-12-31T16:03:41.504Z,101625.95
2018-12-31T16:06:12.524Z,101629.84
2018-12-31T16:08:43.572Z,101633.42
2018-12-31T16:11:14.578Z,101631.90
2018-12-31T16:13:45.704Z,101634.55
2018-12-31T16:16:16.718Z,101630.70
2018-12-31T16:18:47.747Z,101630.74
2018-12-31T16:21:18.838Z,101627.16
2018-12-31T16:23:50.115Z,101629.08
2018-12-31T16:26:21.355Z,101638.33
2018-12-31T16:28:53.314Z,101637.63
2018-12-31T16:31:24.097Z,101636.75
2018-12-31T16:33:55.213Z,101634.91
2018-12-31T16:36:26.224Z,101635.45
2018-12-31T16:38:57.020Z,101629.84
2018-12-31T16:41:28.038Z,101636.30
2018-12-31T16:43:58.851Z,101635.05
2018-12-31T16:46:29.725Z,101636.78
2018-12-31T16:49:00.803Z,101634.20
2018-12-31T16:51:31.586Z,101630.92
2018-12-31T16:54:02.681Z,101629.66
2018-12-31T16:56:33.531Z,101633.65
2018-12-31T16:59:04.907Z,101630.28
2018-12-31T17:01:35.970Z,101640.73
2018-12-31T17:04:07.736Z,101637.23
2018-12-31T17:06:38.586Z,101631.38
2018-12-31T17:09:09.493Z,101636.95
2018-12-31T17:11:40.266Z,101642.88
2018-12-31T17:14:11.351Z,101636.20
2018-12-31T17:16:42.476Z,101634.51
2018-12-31T17:19:13.779Z,101641.69
2018-12-31T17:21:45.043Z,101641.22
2018-12-31T17:24:15.905Z,101638.15
2018-12-31T17:26:46.914Z,101643.63
2018-12-31T17:29:17.830Z,101638.83
2018-12-31T17:31:48.859Z,101643.70
2018-12-31T17:34:20.057Z,101641.62
2018-12-31T17:36:51.067Z,101634.06
2018-12-31T17:39:22.158Z,101638.90
2018-12-31T17:41:53.160Z,101641.42
2018-12-31T17:44:25.037Z,101640.09
2018-12-31T17:46:56.054Z,101636.65
2018-12-31T17:49:27.359Z,101635.86
2018-12-31T17:51:59.333Z,101635.25
2018-12-31T17:54:30.370Z,101632.56
2018-12-31T17:57:01.306Z,101633.34
2018-12-31T17:59:32.398Z,101636.00
2018-12-31T18:02:03.397Z,101628.09
2018-12-31T18:04:34.275Z,101638.25
2018-12-31T18:07:05.394Z,101640.42
2018-12-31T18:09:36.708Z,101647.42
2018-12-31T18:12:07.783Z,101641.41
2018-12-31T18:14:39.132Z,101643.55
2018-12-31T18:17:10.583Z,101642.77
2018-12-31T18:22:22.132Z,101648.59
2018-12-31T18:24:53.174Z,101653.77
2018-12-31T18:27:23.974Z,101656.05
2018-12-31T18:29:54.779Z,101655.55
2018-12-31T18:32:25.789Z,101662.66
2018-12-31T18:34:57.074Z,101656.09
2018-12-31T18:37:28.229Z,101661.33
2018-12-31T18:39:59.274Z,101665.22
2018-12-31T18:42:30.042Z,101673.93
2018-12-31T18:45:00.842Z,101680.73
2018-12-31T18:47:31.939Z,101674.61
2018-12-31T18:50:02.987Z,101677.16
2018-12-31T18:52:33.770Z,101681.52
2018-12-31T18:55:04.722Z,101678.59
2018-12-31T18:57:35.731Z,101673.52
2018-12-31T19:00:07.193Z,101672.88
2018-12-31T19:02:38.550Z,101671.78
2018-12-31T19:05:11.225Z,101665.01
2018-12-31T19:07:42.361Z,101668.48
2018-12-31T19:10:13.386Z,101672.56
2018-12-31T19:12:44.169Z,101666.20
2018-12-31T19:15:15.011Z,101673.21
2018-12-31T19:17:45.804Z,101675.22
2018-12-31T19:20:16.596Z,101674.47
2018-12-31T19:22:47.687Z,101683.23
2018-12-31T19:25:18.728Z,101676.75
2018-12-31T19:27:50.021Z,101675.46
2018-12-31T19:30:20.809Z,101677.27
2018-12-31T19:32:51.591Z,101679.78
2018-12-31T19:35:22.460Z,101677.40
2018-12-31T19:37:53.242Z,101673.96
2018-12-31T19:40:24.038Z,101672.64
2018-12-31T19:42:55.296Z,101670.28
2018-12-31T19:45:26.535Z,101667.50
2018-12-31T19:47:57.415Z,101666.81
2018-12-31T19:50:28.445Z,101660.83
2018-12-31T19:52:59.535Z,101656.84
2018-12-31T19:55:30.555Z,101662.62
2018-12-31T19:58:01.410Z,101662.83
2018-12-31T20:00:33.501Z,101658.23
2018-12-31T20:03:04.836Z,101660.17
2018-12-31T20:05:35.890Z,101656.70
2018-12-31T20:08:06.988Z,101652.07
2018-12-31T20:10:38.335Z,101648.53
2018-12-31T20:13:09.124Z,101646.92
2018-12-31T20:15:39.995Z,101645.70
2018-12-31T20:18:12.735Z,101648.70
2018-12-31T20:20:43.839Z,101640.66
2018-12-31T20:23:14.846Z,101646.78
2018-12-31T20:25:45.725Z,101639.74
2018-12-31T20:28:16.756Z,101642.81
2018-12-31T20:30:47.867Z,101642.27
2018-12-31T20:33:19.015Z,101635.59
2018-12-31T20:35:49.826Z,101636.45
2018-12-31T20:38:21.162Z,101641.08
2018-12-31T20:40:52.190Z,101635.86
2018-12-31T20:43:22.983Z,101628.28
2018-12-31T20:45:54.180Z,101637.84
2018-12-31T20:48:25.370Z,101631.98
2018-12-31T20:50:56.251Z,101637.06
2018-12-31T20:53:27.335Z,101630.70
2018-12-31T20:55:58.134Z,101630.97
2018-12-31T20:58:29.226Z,101627.91
2018-12-31T21:01:00.378Z,101631.88
2018-12-31T21:03:31.730Z,101628.59
2018-12-31T21:06:02.867Z,101624.50
2018-12-31T21:08:33.818Z,101625.15
2018-12-31T21:11:04.770Z,101619.50
2018-12-31T21:13:35.883Z,101620.72
2018-12-31T21:16:06.764Z,101626.87
2018-12-31T21:18:38.178Z,101628.04
2018-12-31T21:21:09.491Z,101623.31
2018-12-31T21:23:41.336Z,101621.64
2018-12-31T21:26:12.644Z,101620.82
2018-12-31T21:28:43.427Z,101617.25
2018-12-31T21:31:14.460Z,101617.76
2018-12-31T21:33:45.458Z,101612.64
2018-12-31T21:36:16.330Z,101608.70
2018-12-31T21:38:47.179Z,101604.55
2018-12-31T21:41:18.238Z,101606.05
2018-12-31T21:43:49.337Z,101605.30
2018-12-31T21:46:20.629Z,101610.78
2018-12-31T21:48:51.719Z,101611.02
2018-12-31T21:51:22.719Z,101611.94
2018-12-31T21:53:53.492Z,101621.47
2018-12-31T21:56:24.698Z,101615.73
2018-12-31T21:58:55.812Z,101612.72
2018-12-31T22:01:26.960Z,101621.77
2018-12-31T22:03:57.755Z,101611.97
2018-12-31T22:06:28.632Z,101622.28
2018-12-31T22:09:00.050Z,101618.67
2018-12-31T22:11:31.067Z,101621.33
2018-12-31T22:14:02.021Z,101623.10
2018-12-31T22:16:32.984Z,101629.02
2018-12-31T22:19:03.851Z,101629.98
2018-12-31T22:21:34.658Z,101625.42
2018-12-31T22:24:05.766Z,101629.20
2018-12-31T22:26:36.639Z,101617.76
2018-12-31T22:29:07.593Z,101622.31
2018-12-31T22:31:38.411Z,101618.23
2018-12-31T22:34:09.514Z,101612.64
2018-12-31T22:36:41.071Z,101606.34
2018-12-31T22:39:12.344Z,101610.67
2018-12-31T22:41:43.903Z,101606.02
2018-12-31T22:44:15.179Z,101604.41
2018-12-31T22:46:46.292Z,101600.86
2018-12-31T22:49:17.087Z,101607.30
2018-12-31T22:51:48.382Z,101603.59
2018-12-31T22:54:19.186Z,101604.24
2018-12-31T22:56:50.470Z,101598.25
2018-12-31T22:59:21.743Z,101597.33
2018-12-31T23:01:52.922Z,101597.38
2018-12-31T23:04:23.759Z,101594.05
2018-12-31T23:06:58.543Z,101600.84
2018-12-31T23:09:29.730Z,101596.55
2018-12-31T23:12:00.826Z,101594.37
2018-12-31T23:18:13.584Z,101589.14
2018-12-31T23:21:10.986Z,101595.50
2018-12-31T23:23:43.707Z,101592.58
2018-12-31T23:33:09.113Z,101590.30
2018-12-31T23:35:40.184Z,101588.89
2018-12-31T23:38:30.350Z,101582.77
2018-12-31T23:45:17.760Z,101587.94
2018-12-31T23:48:06.297Z,101585.42
2018-12-31T23:54:08.699Z,101584.41
2018-12-31T23:56:39.493Z,101578.03
2018-12-31T23:59:10.830Z,101580.42
